»·PEaware :: N3914R KSNA-KSMO

N3914R :: KSNA-KSMO

FLIGHT INFORMATION

Flight Status: Arrived
Operator: Privately registered:
United States
More flights under this callsign
Pilot: Jake L. (17072)
Aircraft: CESSNA 172 SKYHAWK
(C172)
More flights by this aircraft type
Origin: KSNA John Wayne-Orange Co
United States
Destination: KSMO Santa Monica Mun
United States
More flights between these airports :: More routes between these airports
Route: +SLI V8 POXKU V363 BAYJY V186 DARTS
File this flight plan on PilotEdge
Remarks:
Altitude:
(Current/Filed)
4,000ft
Speed:
(Current/Filed)
100kts
Departed: 11-Apr-18 05:08 PM
Arrived: 11-Apr-18 05:48 PM
Distance/Time
Traveled:
36nm/0:40
Distance/Time
To Go:
Arrived

Flight Plot

Page will automatically refresh every two minutes.


Map Options




Map Legend


Flown Route
Filed Route
Departure Airport
Arrival Airport
Navaid (VOR, NDB)
Fix

Horizontal Profiles

Position Reports

Time Latitude Longitude Heading Altitude Ground
Speed
11-Apr-18 16:32 33.674238 -117.871908 118 60ft 0kts
11-Apr-18 16:33 33.674238 -117.871908 118 60ft 0kts
11-Apr-18 16:34 33.674238 -117.871908 118 60ft 0kts
11-Apr-18 16:35 33.674238 -117.871908 118 60ft 0kts
11-Apr-18 16:36 33.674238 -117.871908 118 60ft 0kts
11-Apr-18 16:37 33.674238 -117.871908 118 60ft 0kts
11-Apr-18 16:38 33.674238 -117.871908 118 60ft 0kts
11-Apr-18 16:39 33.674238 -117.871908 118 60ft 0kts
11-Apr-18 16:40 33.674238 -117.871908 118 60ft 0kts
11-Apr-18 16:41 33.674238 -117.871908 118 60ft 0kts
11-Apr-18 16:42 33.674238 -117.871908 118 60ft 0kts
11-Apr-18 16:43 33.674238 -117.871908 118 60ft 0kts
11-Apr-18 16:44 33.674238 -117.871908 118 60ft 0kts
11-Apr-18 16:45 33.674238 -117.871908 118 60ft 0kts
11-Apr-18 16:46 33.674238 -117.871908 118 60ft 0kts
11-Apr-18 16:47 33.674238 -117.871908 118 60ft 0kts
11-Apr-18 16:48 33.674238 -117.871908 118 60ft 0kts
11-Apr-18 16:49 33.674238 -117.871908 118 60ft 0kts
11-Apr-18 16:50 33.674238 -117.871908 118 60ft 0kts
11-Apr-18 16:52 33.674238 -117.871908 118 60ft 0kts
11-Apr-18 16:53 33.674238 -117.871908 118 60ft 0kts
11-Apr-18 16:54 33.674238 -117.871908 118 60ft 0kts
11-Apr-18 16:55 33.674238 -117.871908 118 60ft 0kts
11-Apr-18 16:56 33.674238 -117.871908 118 60ft 0kts
11-Apr-18 16:57 33.674238 -117.871908 118 60ft 0kts
11-Apr-18 16:58 33.674238 -117.871908 118 60ft 0kts
11-Apr-18 16:59 33.674238 -117.871908 118 60ft 0kts
11-Apr-18 17:00 33.674238 -117.871908 118 60ft 0kts
11-Apr-18 17:01 33.674238 -117.871908 118 60ft 0kts
11-Apr-18 17:02 33.675013 -117.871299 35 60ft 1kts
11-Apr-18 17:03 33.679654 -117.867959 21 60ft 34kts
11-Apr-18 17:04 33.681219 -117.866377 116 60ft 0kts
11-Apr-18 17:05 33.681219 -117.866376 116 60ft 0kts
11-Apr-18 17:06 33.681219 -117.866376 116 60ft 0kts
11-Apr-18 17:07 33.671127 -117.871829 211 141ft 99kts
11-Apr-18 17:08 33.653050 -117.898047 233 776ft 98kts
11-Apr-18 17:09 33.635578 -117.927806 232 1121ft 109kts
11-Apr-18 17:10 33.617812 -117.957405 233 1576ft 108kts
11-Apr-18 17:11 33.601323 -117.986986 234 2075ft 106kts
11-Apr-18 17:12 33.589734 -118.018058 287 2558ft 114kts
11-Apr-18 17:13 33.620855 -118.028390 351 3039ft 121kts
11-Apr-18 17:14 33.654513 -118.031456 350 3546ft 121kts
11-Apr-18 17:15 33.686500 -118.035004 346 4318ft 105kts
11-Apr-18 17:16 33.715886 -118.037569 351 5026ft 115kts
11-Apr-18 17:17 33.746699 -118.040804 345 5787ft 112kts
11-Apr-18 17:18 33.779469 -118.048285 352 5968ft 142kts
11-Apr-18 17:19 33.806172 -118.015022 57 5890ft 158kts
11-Apr-18 17:20 33.812296 -118.002705 72 5938ft 148kts
11-Apr-18 17:21 33.827020 -117.925336 105 5987ft 142kts
11-Apr-18 17:22 33.825682 -117.878277 67 5996ft 149kts
11-Apr-18 17:23 33.843467 -117.834103 76 5998ft 148kts
11-Apr-18 17:24 33.854981 -117.786449 76 6009ft 148kts
11-Apr-18 17:25 33.882353 -117.773828 296 6008ft 122kts
11-Apr-18 17:26 33.909688 -117.793851 7 5990ft 145kts
11-Apr-18 17:27 33.948662 -117.782069 6 6002ft 144kts
11-Apr-18 17:28 33.987869 -117.777825 356 6015ft 141kts
11-Apr-18 17:29 34.021185 -117.787594 290 6023ft 120kts
11-Apr-18 17:30 34.021219 -117.825129 256 6036ft 114kts
11-Apr-18 17:31 34.016025 -117.862963 256 6048ft 115kts
11-Apr-18 17:32 34.031299 -117.898938 296 6045ft 124kts
11-Apr-18 17:33 34.048411 -117.934523 292 6057ft 122kts
11-Apr-18 17:34 34.065498 -117.970154 292 6068ft 122kts
11-Apr-18 17:35 34.081772 -118.006197 290 6043ft 122kts
11-Apr-18 17:36 34.098011 -118.042379 290 6057ft 122kts
11-Apr-18 17:37 34.114141 -118.078334 290 5938ft 128kts
11-Apr-18 17:38 34.130831 -118.114531 291 5984ft 125kts
11-Apr-18 17:39 34.137548 -118.153488 268 5974ft 120kts
11-Apr-18 17:40 34.139338 -118.195178 264 5614ft 137kts
11-Apr-18 17:41 34.139607 -118.242964 263 4602ft 146kts
11-Apr-18 17:42 34.129360 -118.288584 248 3826ft 144kts
11-Apr-18 17:43 34.110618 -118.331331 228 2818ft 146kts
11-Apr-18 17:44 34.085928 -118.369838 228 1820ft 146kts
11-Apr-18 17:45 34.061375 -118.404858 213 1376ft 128kts
11-Apr-18 17:46 34.032222 -118.433146 222 558ft 137kts
11-Apr-18 17:47 34.017986 -118.448751 223 153ft 31kts
11-Apr-18 17:48 34.013309 -118.454353 256 128ft 4kts
11-Apr-18 17:49 34.015240 -118.453101 44 136ft 18kts
11-Apr-18 17:50 34.016449 -118.452270 307 141ft 0kts
11-Apr-18 17:51 34.016449 -118.452270 306 141ft 0kts
11-Apr-18 17:52 34.016449 -118.452270 306 141ft 0kts

Navigation Log

Ident Type
1. KSNA Airport
2. SLI Navaid
3. AHEIM Fix
4. OLLIE Fix
5. POXKU Fix
6. POXKU Fix
7. PRADO Fix
8. BAYJY Fix
9. BAYJY Fix
10. ADAMM Fix
11. PIRRO Fix
12. ITSME Fix
13. ELMOO Fix
14. PURMS Fix
15. DARTS Fix
16. KSMO Airport